createdAt,value
2018-02-27T00:01:49.218Z,49.30
2018-02-27T00:04:16.707Z,49.26
2018-02-27T00:06:44.169Z,49.30
2018-02-27T00:09:11.634Z,49.34
2018-02-27T00:11:39.338Z,52.57
2018-02-27T00:14:06.797Z,49.15
2018-02-27T00:16:34.258Z,50.86
2018-02-27T00:19:01.746Z,49.28
2018-02-27T00:21:29.239Z,50.07
2018-02-27T00:23:56.702Z,49.89
2018-02-27T00:26:24.394Z,50.21
2018-02-27T00:28:51.987Z,50.94
2018-02-27T00:31:19.522Z,49.95
2018-02-27T00:33:47.025Z,50.07
2018-02-27T00:36:14.536Z,50.62
2018-02-27T00:38:41.994Z,50.81
2018-02-27T00:41:09.510Z,51.08
2018-02-27T00:43:36.980Z,51.05
2018-02-27T00:46:04.455Z,51.33
2018-02-27T00:48:31.946Z,51.20
2018-02-27T00:50:59.478Z,51.43
2018-02-27T00:53:27.068Z,51.80
2018-02-27T00:55:54.643Z,51.84
2018-02-27T00:58:22.106Z,51.73
2018-02-27T01:00:49.563Z,51.63
2018-02-27T01:03:17.029Z,51.68
2018-02-27T01:05:44.581Z,51.66
2018-02-27T01:08:12.091Z,51.72
2018-02-27T01:10:39.542Z,51.70
2018-02-27T01:13:06.998Z,51.65
2018-02-27T01:15:34.472Z,52.00
2018-02-27T01:18:01.945Z,52.27
2018-02-27T01:20:29.410Z,52.33
2018-02-27T01:22:56.983Z,52.33
2018-02-27T01:25:24.487Z,52.45
2018-02-27T01:27:51.942Z,52.52
2018-02-27T01:30:19.715Z,52.69
2018-02-27T01:32:47.369Z,52.70
2018-02-27T01:35:14.832Z,52.63
2018-02-27T01:37:42.302Z,53.10
2018-02-27T01:40:09.750Z,52.82
2018-02-27T01:42:37.307Z,52.57
2018-02-27T01:45:04.774Z,52.51
2018-02-27T01:47:32.235Z,52.75
2018-02-27T01:49:59.714Z,53.20
2018-02-27T01:52:27.201Z,52.78
2018-02-27T01:54:54.666Z,53.06
2018-02-27T01:57:22.150Z,52.70
2018-02-27T01:59:49.658Z,52.59
2018-02-27T02:02:17.110Z,52.23
2018-02-27T02:04:44.574Z,52.03
2018-02-27T02:07:12.080Z,51.52
2018-02-27T02:09:39.635Z,51.89
2018-02-27T02:12:07.098Z,51.78
2018-02-27T02:14:34.649Z,51.86
2018-02-27T02:17:02.111Z,51.75
2018-02-27T02:19:29.558Z,51.33
2018-02-27T02:21:57.122Z,51.65
2018-02-27T02:24:24.594Z,51.51
2018-02-27T02:26:52.070Z,51.52
2018-02-27T02:29:19.603Z,51.59
2018-02-27T02:31:47.058Z,51.67
2018-02-27T02:34:14.518Z,51.78
2018-02-27T02:36:42.004Z,51.76
2018-02-27T02:39:09.478Z,51.93
2018-02-27T02:41:36.957Z,51.58
2018-02-27T02:44:04.490Z,51.83
2018-02-27T02:46:31.948Z,51.99
2018-02-27T02:48:59.403Z,52.25
2018-02-27T02:51:26.895Z,52.33
2018-02-27T02:53:54.358Z,52.51
2018-02-27T02:56:21.808Z,52.55
2018-02-27T02:58:49.360Z,52.58
2018-02-27T03:01:16.827Z,52.52
2018-02-27T03:03:44.286Z,52.39
2018-02-27T03:06:11.762Z,52.47
2018-02-27T03:08:39.223Z,52.38
2018-02-27T03:11:06.985Z,51.88
2018-02-27T03:13:34.705Z,52.19
2018-02-27T03:16:02.412Z,51.84
2018-02-27T03:18:30.379Z,51.81
2018-02-27T03:20:57.952Z,51.80
2018-02-27T03:23:25.535Z,51.75
2018-02-27T03:25:53.225Z,51.90
2018-02-27T03:28:20.819Z,52.00
2018-02-27T03:30:48.520Z,51.92
2018-02-27T03:33:16.224Z,52.15
2018-02-27T03:35:44.094Z,52.27
2018-02-27T03:38:11.760Z,52.25
2018-02-27T03:40:39.223Z,52.27
2018-02-27T03:43:06.736Z,51.75
2018-02-27T03:45:34.253Z,51.88
2018-02-27T03:48:01.843Z,51.92
2018-02-27T03:50:29.473Z,51.44
2018-02-27T03:52:56.972Z,51.40
2018-02-27T03:55:26.014Z,51.66
2018-02-27T03:57:53.677Z,51.96
2018-02-27T04:00:21.235Z,51.32
2018-02-27T04:02:48.714Z,51.30
2018-02-27T04:05:16.241Z,51.76
2018-02-27T04:07:43.835Z,51.74
2018-02-27T04:10:11.310Z,51.84
2018-02-27T04:12:38.890Z,51.94
2018-02-27T04:15:06.499Z,51.79
2018-02-27T04:17:33.982Z,51.55
2018-02-27T04:20:01.455Z,51.79
2018-02-27T04:22:29.032Z,51.75
2018-02-27T04:24:56.593Z,51.73
2018-02-27T04:27:24.067Z,51.43
2018-02-27T04:29:51.670Z,51.72
2018-02-27T04:32:19.270Z,51.84
2018-02-27T04:34:46.861Z,52.00
2018-02-27T04:37:14.451Z,51.94
2018-02-27T04:39:41.966Z,52.23
2018-02-27T04:42:09.556Z,51.77
2018-02-27T04:44:37.067Z,52.05
2018-02-27T04:47:04.528Z,52.18
2018-02-27T04:49:32.012Z,51.89
2018-02-27T04:51:59.657Z,52.19
2018-02-27T04:54:27.361Z,52.39
2018-02-27T04:56:55.021Z,52.30
2018-02-27T04:59:22.689Z,52.65
2018-02-27T05:01:50.326Z,52.57
2018-02-27T05:04:18.003Z,52.35
2018-02-27T05:06:45.627Z,52.27
2018-02-27T05:09:13.269Z,52.28
2018-02-27T05:11:40.851Z,52.58
2018-02-27T05:14:08.409Z,52.41
2018-02-27T05:16:35.998Z,52.26
2018-02-27T05:19:03.601Z,52.29
2018-02-27T05:21:31.112Z,53.10
2018-02-27T05:23:58.766Z,53.96
2018-02-27T05:26:26.448Z,54.61
2018-02-27T05:28:54.072Z,54.47
2018-02-27T05:31:21.605Z,54.58
2018-02-27T05:33:49.216Z,54.55
2018-02-27T05:36:16.834Z,54.62
2018-02-27T05:38:44.433Z,54.70
2018-02-27T05:41:11.910Z,54.93
2018-02-27T05:43:39.493Z,54.86
2018-02-27T05:46:07.143Z,54.80
2018-02-27T05:48:34.746Z,55.24
2018-02-27T05:51:02.304Z,55.21
2018-02-27T05:53:29.900Z,54.99
2018-02-27T05:55:57.459Z,55.23
2018-02-27T05:58:25.043Z,54.87
2018-02-27T06:00:52.515Z,54.83
2018-02-27T06:03:19.981Z,54.79
2018-02-27T06:05:47.455Z,54.86
2018-02-27T06:08:14.934Z,54.86
2018-02-27T06:10:42.548Z,54.76
2018-02-27T06:13:10.006Z,55.00
2018-02-27T06:15:37.500Z,54.87
2018-02-27T06:18:05.075Z,54.63
2018-02-27T06:20:32.536Z,54.37
2018-02-27T06:23:00.007Z,54.11
2018-02-27T06:25:27.466Z,53.81
2018-02-27T06:27:54.953Z,53.82
2018-02-27T06:30:22.415Z,54.07
2018-02-27T06:32:49.872Z,54.26
2018-02-27T06:37:51.186Z,53.37
2018-02-27T06:40:18.666Z,53.48
2018-02-27T06:42:46.150Z,52.98
2018-02-27T06:45:13.619Z,52.96
2018-02-27T06:47:41.156Z,52.97
2018-02-27T06:50:08.652Z,53.20
2018-02-27T06:52:36.110Z,53.45
2018-02-27T06:55:03.576Z,52.75
2018-02-27T06:57:31.062Z,52.37
2018-02-27T06:59:58.521Z,51.53
2018-02-27T07:02:25.974Z,51.92
2018-02-27T07:04:53.470Z,51.63
2018-02-27T07:07:20.946Z,51.57
2018-02-27T07:09:48.414Z,51.56
2018-02-27T07:12:15.882Z,51.18
2018-02-27T07:14:43.378Z,51.49
2018-02-27T07:17:10.863Z,51.53
2018-02-27T07:19:38.327Z,51.54
2018-02-27T07:22:05.786Z,51.20
2018-02-27T07:24:33.322Z,51.10
2018-02-27T07:27:00.816Z,51.34
2018-02-27T07:29:28.440Z,51.30
2018-02-27T07:31:56.114Z,51.22
2018-02-27T07:34:23.592Z,50.73
2018-02-27T07:36:51.054Z,50.55
2018-02-27T07:39:18.865Z,50.35
2018-02-27T07:41:46.329Z,49.93
2018-02-27T07:44:13.894Z,49.86
2018-02-27T07:46:41.452Z,49.93
2018-02-27T07:49:09.013Z,49.61
2018-02-27T07:51:36.478Z,48.89
2018-02-27T07:54:03.976Z,48.78
2018-02-27T07:56:31.430Z,48.70
2018-02-27T07:58:58.927Z,48.93
2018-02-27T08:01:26.392Z,48.95
2018-02-27T08:03:53.858Z,48.51
2018-02-27T08:06:21.348Z,47.62
2018-02-27T08:08:48.830Z,47.14
2018-02-27T08:11:16.286Z,46.96
2018-02-27T08:13:43.839Z,46.78
2018-02-27T08:16:11.325Z,46.43
2018-02-27T08:18:38.809Z,46.02
2018-02-27T08:21:06.294Z,45.94
2018-02-27T08:23:33.820Z,46.09
2018-02-27T08:26:01.323Z,45.28
2018-02-27T08:28:28.818Z,45.23
2018-02-27T08:30:56.279Z,44.18
2018-02-27T08:33:23.804Z,45.22
2018-02-27T08:35:51.282Z,44.45
2018-02-27T08:38:18.865Z,44.01
2018-02-27T08:40:46.382Z,43.71
2018-02-27T08:43:14.171Z,43.59
2018-02-27T08:45:41.682Z,43.50
2018-02-27T08:48:09.146Z,43.52
2018-02-27T08:50:36.614Z,43.35
2018-02-27T08:53:04.101Z,42.68
2018-02-27T08:55:31.635Z,43.00
2018-02-27T08:57:59.105Z,42.69
2018-02-27T09:00:26.740Z,42.38
2018-02-27T09:02:54.213Z,41.99
2018-02-27T09:05:21.686Z,41.98
2018-02-27T09:07:49.177Z,42.24
2018-02-27T09:10:16.647Z,42.24
2018-02-27T09:12:44.127Z,42.58
2018-02-27T09:15:11.629Z,42.90
2018-02-27T09:17:39.104Z,42.90
2018-02-27T09:20:06.606Z,43.20
2018-02-27T09:22:34.093Z,43.20
2018-02-27T09:25:01.558Z,43.50
2018-02-27T09:27:29.028Z,43.06
2018-02-27T09:29:56.523Z,42.96
2018-02-27T09:32:23.986Z,42.20
2018-02-27T09:34:51.575Z,42.71
2018-02-27T09:37:19.065Z,42.71
2018-02-27T09:39:46.526Z,42.41
2018-02-27T09:42:14.028Z,42.52
2018-02-27T09:44:41.604Z,41.98
2018-02-27T09:47:09.080Z,42.12
2018-02-27T09:49:36.603Z,41.95
2018-02-27T09:52:04.101Z,41.97
2018-02-27T09:54:31.614Z,42.06
2018-02-27T09:56:59.166Z,41.71
2018-02-27T09:59:26.656Z,41.18
2018-02-27T10:01:54.231Z,41.10
2018-02-27T10:04:21.755Z,41.03
2018-02-27T10:06:49.318Z,41.40
2018-02-27T10:09:16.867Z,41.59
2018-02-27T10:11:44.342Z,40.87
2018-02-27T10:14:11.831Z,40.85
2018-02-27T10:16:39.907Z,40.33
2018-02-27T10:19:07.372Z,40.42
2018-02-27T10:21:34.858Z,40.54
2018-02-27T10:24:02.326Z,40.37
2018-02-27T10:26:29.822Z,40.16
2018-02-27T10:28:57.281Z,40.25
2018-02-27T10:31:24.753Z,39.79
2018-02-27T10:33:52.275Z,39.79
2018-02-27T10:36:19.743Z,40.09
2018-02-27T10:38:47.207Z,40.02
2018-02-27T10:41:14.690Z,40.72
2018-02-27T10:43:42.340Z,40.86
2018-02-27T10:46:09.853Z,40.72
2018-02-27T10:48:37.346Z,40.18
2018-02-27T10:51:04.836Z,40.46
2018-02-27T10:53:32.299Z,40.36
2018-02-27T10:55:59.868Z,39.86
2018-02-27T10:58:27.341Z,39.79
2018-02-27T11:00:57.655Z,39.52
2018-02-27T11:03:25.225Z,39.74
2018-02-27T11:05:52.696Z,39.69
2018-02-27T11:08:20.465Z,39.07
2018-02-27T11:10:48.001Z,38.61
2018-02-27T11:13:15.563Z,39.17
2018-02-27T11:15:43.052Z,39.10
2018-02-27T11:18:10.513Z,38.73
2018-02-27T11:20:38.042Z,39.14
2018-02-27T11:23:05.555Z,39.76
2018-02-27T11:25:33.028Z,39.94
2018-02-27T11:28:00.558Z,40.48
2018-02-27T11:30:28.394Z,40.00
2018-02-27T11:32:55.866Z,40.49
2018-02-27T11:35:23.324Z,40.20
2018-02-27T11:37:51.168Z,40.26
2018-02-27T11:40:18.666Z,40.25
2018-02-27T11:42:46.123Z,39.77
2018-02-27T11:45:13.666Z,39.09
2018-02-27T11:47:41.154Z,38.84
2018-02-27T11:50:08.631Z,38.72
2018-02-27T11:52:36.098Z,38.61
2018-02-27T11:55:03.712Z,38.58
2018-02-27T11:57:31.174Z,38.58
2018-02-27T11:59:58.674Z,38.66
2018-02-27T12:02:26.148Z,38.37
2018-02-27T12:04:53.695Z,38.37
2018-02-27T12:07:21.596Z,38.68
2018-02-27T12:09:49.095Z,38.67
2018-02-27T12:12:16.550Z,37.92
2018-02-27T12:14:43.999Z,37.93
2018-02-27T12:17:11.470Z,38.20
2018-02-27T12:19:38.925Z,38.59
2018-02-27T12:22:06.478Z,39.84
2018-02-27T12:24:34.013Z,39.56
2018-02-27T12:27:03.011Z,40.13
2018-02-27T12:29:30.479Z,40.15
2018-02-27T12:31:57.954Z,39.24
2018-02-27T12:34:25.418Z,38.86
2018-02-27T12:36:52.986Z,38.63
2018-02-27T12:39:20.473Z,38.36
2018-02-27T12:41:47.930Z,38.23
2018-02-27T12:44:15.386Z,38.81
2018-02-27T12:46:42.957Z,39.52
2018-02-27T12:49:10.687Z,39.72
2018-02-27T12:51:38.286Z,39.56
2018-02-27T12:54:05.868Z,39.57
2018-02-27T12:56:33.631Z,39.38
2018-02-27T12:59:01.174Z,38.60
2018-02-27T13:01:29.008Z,38.94
2018-02-27T13:03:56.455Z,38.94
2018-02-27T13:06:23.909Z,39.58
2018-02-27T13:08:51.370Z,39.92
2018-02-27T13:11:19.149Z,39.94
2018-02-27T13:13:46.631Z,39.73
2018-02-27T13:16:14.192Z,39.09
2018-02-27T13:18:41.651Z,39.08
2018-02-27T13:21:09.209Z,39.33
2018-02-27T13:23:36.726Z,39.81
2018-02-27T13:26:04.181Z,39.35
2018-02-27T13:28:31.698Z,39.34
2018-02-27T13:30:59.178Z,39.37
2018-02-27T13:33:26.859Z,39.07
2018-02-27T13:35:54.318Z,39.52
2018-02-27T13:38:21.782Z,38.91
2018-02-27T13:40:49.253Z,38.77
2018-02-27T13:43:16.736Z,38.89
2018-02-27T13:45:44.248Z,39.08
2018-02-27T13:48:11.726Z,40.25
2018-02-27T13:50:39.183Z,40.35
2018-02-27T13:53:06.764Z,41.33
2018-02-27T13:55:34.525Z,41.59
2018-02-27T13:58:01.988Z,41.76
2018-02-27T14:00:29.443Z,42.61
2018-02-27T14:02:56.924Z,43.20
2018-02-27T14:05:24.407Z,43.76
2018-02-27T14:07:51.872Z,43.52
2018-02-27T14:10:19.418Z,43.84
2018-02-27T14:12:46.871Z,44.09
2018-02-27T14:15:14.330Z,44.04
2018-02-27T14:17:41.842Z,43.47
2018-02-27T14:20:09.301Z,42.77
2018-02-27T14:22:36.759Z,43.19
2018-02-27T14:25:04.328Z,43.50
2018-02-27T14:27:31.917Z,43.95
2018-02-27T14:29:59.370Z,43.88
2018-02-27T14:32:26.853Z,44.62
2018-02-27T14:34:54.327Z,45.68
2018-02-27T14:37:21.782Z,45.53
2018-02-27T14:39:49.308Z,45.60
2018-02-27T14:42:16.726Z,45.78
2018-02-27T14:44:44.278Z,45.70
2018-02-27T14:47:11.785Z,46.38
2018-02-27T14:49:39.294Z,46.37
2018-02-27T14:52:06.802Z,46.31
2018-02-27T14:54:34.358Z,46.39
2018-02-27T14:57:01.837Z,46.48
2018-02-27T14:59:29.293Z,46.50
2018-02-27T15:01:56.838Z,47.05
2018-02-27T15:04:24.338Z,46.88
2018-02-27T15:06:51.802Z,46.46
2018-02-27T15:09:19.255Z,46.20
2018-02-27T15:11:46.754Z,46.54
2018-02-27T15:14:14.222Z,46.89
2018-02-27T15:16:41.675Z,47.42
2018-02-27T15:19:09.145Z,47.26
2018-02-27T15:21:36.595Z,46.94
2018-02-27T15:24:04.100Z,47.30
2018-02-27T15:26:31.546Z,46.89
2018-02-27T15:28:59.066Z,46.53
2018-02-27T15:31:26.630Z,46.40
2018-02-27T15:33:54.114Z,47.96
2018-02-27T15:36:21.595Z,48.68
2018-02-27T15:38:49.150Z,49.27
2018-02-27T15:41:16.619Z,48.88
2018-02-27T15:43:44.115Z,48.87
2018-02-27T15:46:11.561Z,50.23
2018-02-27T15:48:39.021Z,51.75
2018-02-27T15:51:06.537Z,52.36
2018-02-27T15:53:34.003Z,52.41
2018-02-27T15:56:01.493Z,52.84
2018-02-27T15:58:30.278Z,52.61
2018-02-27T16:00:57.738Z,53.01
2018-02-27T16:03:25.307Z,52.71
2018-02-27T16:05:52.788Z,51.23
2018-02-27T16:08:20.291Z,50.93
2018-02-27T16:10:47.790Z,50.89
2018-02-27T16:13:15.256Z,51.30
2018-02-27T16:15:42.710Z,51.58
2018-02-27T16:18:10.208Z,52.29
2018-02-27T16:20:37.669Z,53.13
2018-02-27T16:23:05.133Z,54.20
2018-02-27T16:25:32.630Z,54.66
2018-02-27T16:28:00.110Z,55.15
2018-02-27T16:30:27.594Z,55.99
2018-02-27T16:32:55.050Z,56.53
2018-02-27T16:35:22.567Z,56.81
2018-02-27T16:37:50.081Z,56.51
2018-02-27T16:40:17.587Z,57.35
2018-02-27T16:42:45.162Z,56.79
2018-02-27T16:45:12.641Z,56.31
2018-02-27T16:47:40.164Z,56.01
2018-02-27T16:50:07.695Z,56.14
2018-02-27T16:52:35.160Z,55.93
2018-02-27T16:55:02.626Z,56.33
2018-02-27T16:57:30.200Z,56.71
2018-02-27T16:59:57.671Z,56.51
2018-02-27T17:02:25.194Z,57.36
2018-02-27T17:04:52.677Z,58.02
2018-02-27T17:10:10.575Z,60.95
2018-02-27T17:12:38.050Z,63.10
2018-02-27T17:15:05.549Z,64.90
2018-02-27T17:17:33.054Z,65.51
2018-02-27T17:20:00.534Z,66.58
2018-02-27T17:22:28.098Z,67.17
2018-02-27T17:24:55.598Z,67.22
2018-02-27T17:27:23.070Z,67.73
2018-02-27T17:29:50.562Z,68.13
2018-02-27T17:32:18.062Z,68.14
2018-02-27T17:34:45.527Z,67.32
2018-02-27T17:37:12.995Z,66.53
2018-02-27T17:39:40.496Z,66.60
2018-02-27T17:42:08.255Z,66.43
2018-02-27T17:44:35.728Z,66.55
2018-02-27T17:47:03.228Z,65.80
2018-02-27T17:49:30.711Z,65.21
2018-02-27T17:51:58.200Z,64.86
2018-02-27T17:54:25.686Z,65.18
2018-02-27T17:56:53.226Z,64.23
2018-02-27T17:59:20.707Z,64.19
2018-02-27T18:01:48.201Z,64.73
2018-02-27T18:04:15.661Z,64.40
2018-02-27T18:06:43.137Z,64.18
2018-02-27T18:09:10.602Z,64.58
2018-02-27T18:11:38.086Z,64.23
2018-02-27T18:14:05.551Z,64.12
2018-02-27T18:16:33.009Z,64.04
2018-02-27T18:33:04.305Z,62.43
2018-02-27T18:35:31.868Z,62.74
2018-02-27T18:37:59.362Z,62.90
2018-02-27T18:40:26.858Z,63.25
2018-02-27T18:42:54.340Z,62.87
2018-02-27T18:45:21.831Z,63.07
2018-02-27T18:47:49.359Z,63.18
2018-02-27T18:50:16.834Z,63.24
2018-02-27T18:52:44.318Z,62.21
2018-02-27T18:55:11.802Z,62.27
2018-02-27T18:57:39.285Z,62.26
2018-02-27T19:00:06.838Z,62.65
2018-02-27T19:02:34.319Z,62.61
2018-02-27T19:05:01.853Z,63.17
2018-02-27T19:07:29.326Z,63.07
2018-02-27T19:09:56.827Z,63.23
2018-02-27T19:12:24.318Z,63.35
2018-02-27T19:14:51.787Z,63.69
2018-02-27T19:17:19.251Z,64.09
2018-02-27T19:19:46.798Z,64.04
2018-02-27T19:22:14.371Z,64.05
2018-02-27T19:24:41.921Z,64.54
2018-02-27T19:27:09.417Z,65.25
2018-02-27T19:29:36.948Z,66.24
2018-02-27T19:32:04.422Z,66.36
2018-02-27T19:34:31.954Z,66.85
2018-02-27T19:36:59.424Z,67.31
2018-02-27T19:39:26.984Z,67.89
2018-02-27T19:41:54.463Z,67.71
2018-02-27T19:44:21.934Z,68.21
2018-02-27T19:46:49.405Z,68.28
2018-02-27T19:49:16.898Z,68.70
2018-02-27T19:51:44.469Z,69.17
2018-02-27T19:54:11.962Z,69.52
2018-02-27T19:56:39.458Z,69.37
2018-02-27T19:59:06.918Z,69.64
2018-02-27T20:01:34.387Z,70.02
2018-02-27T20:04:02.450Z,70.20
2018-02-27T20:06:29.953Z,70.46
2018-02-27T20:08:57.430Z,70.61
2018-02-27T20:11:24.932Z,70.94
2018-02-27T20:13:52.409Z,71.03
2018-02-27T20:16:19.878Z,71.13
2018-02-27T20:18:47.440Z,70.86
2018-02-27T20:21:14.928Z,70.70
2018-02-27T20:23:48.039Z,71.10
2018-02-27T20:26:15.549Z,71.28
2018-02-27T20:28:48.652Z,71.48
2018-02-27T20:31:16.213Z,71.61
2018-02-27T20:33:43.758Z,69.74
2018-02-27T20:36:11.231Z,68.16
2018-02-27T20:38:44.331Z,66.77
2018-02-27T20:41:11.801Z,65.83
2018-02-27T20:43:39.290Z,65.86
2018-02-27T20:46:06.843Z,65.75
2018-02-27T20:48:34.314Z,65.24
2018-02-27T20:51:01.812Z,62.70
2018-02-27T20:53:29.322Z,63.35
2018-02-27T20:55:56.884Z,61.68
2018-02-27T20:58:24.368Z,62.13
2018-02-27T21:00:51.904Z,62.01
2018-02-27T21:03:19.379Z,61.26
2018-02-27T21:05:46.920Z,60.35
2018-02-27T21:08:14.467Z,60.10
2018-02-27T21:10:41.955Z,59.82
2018-02-27T21:13:09.411Z,59.84
2018-02-27T21:15:36.954Z,59.34
2018-02-27T21:18:04.423Z,59.51
2018-02-27T21:20:31.906Z,59.82
2018-02-27T21:22:59.414Z,59.60
2018-02-27T21:25:26.890Z,59.40
2018-02-27T21:27:54.435Z,59.27
2018-02-27T21:30:21.939Z,58.80
2018-02-27T21:32:49.411Z,58.29
2018-02-27T21:35:16.900Z,58.05
2018-02-27T21:37:44.386Z,57.47
2018-02-27T21:40:11.898Z,57.18
2018-02-27T21:42:39.400Z,57.35
2018-02-27T21:45:06.855Z,57.29
2018-02-27T21:47:34.307Z,57.17
2018-02-27T21:50:01.788Z,56.90
2018-02-27T21:52:29.293Z,56.97
2018-02-27T21:54:56.759Z,56.31
2018-02-27T21:57:24.215Z,56.28
2018-02-27T21:59:51.694Z,56.30
2018-02-27T22:02:19.151Z,55.82
2018-02-27T22:04:46.621Z,56.17
2018-02-27T22:07:14.125Z,56.38
2018-02-27T22:09:41.584Z,54.91
2018-02-27T22:12:09.119Z,54.99
2018-02-27T22:14:36.582Z,54.60
2018-02-27T22:17:04.091Z,54.68
2018-02-27T22:19:31.652Z,54.71
2018-02-27T22:21:59.113Z,54.63
2018-02-27T22:24:26.713Z,55.04
2018-02-27T22:26:54.200Z,55.21
2018-02-27T22:29:21.686Z,55.03
2018-02-27T22:31:49.159Z,54.97
2018-02-27T22:34:16.745Z,55.10
2018-02-27T22:36:44.286Z,55.83
2018-02-27T22:39:11.868Z,55.76
2018-02-27T22:41:39.362Z,55.94
2018-02-27T22:44:06.835Z,56.05
2018-02-27T22:46:34.328Z,56.70
2018-02-27T22:49:01.884Z,56.72
2018-02-27T22:51:29.327Z,56.73
2018-02-27T22:53:56.843Z,57.29
2018-02-27T22:56:24.315Z,57.42
2018-02-27T22:58:51.783Z,57.79
2018-02-27T23:01:19.266Z,58.18
2018-02-27T23:03:46.752Z,58.04
2018-02-27T23:06:14.258Z,58.26
2018-02-27T23:08:41.734Z,58.68
2018-02-27T23:11:09.214Z,58.79
2018-02-27T23:13:36.736Z,59.03
2018-02-27T23:16:04.213Z,59.72
2018-02-27T23:18:31.742Z,59.35
2018-02-27T23:20:59.369Z,59.64
2018-02-27T23:23:26.869Z,59.84
2018-02-27T23:25:57.270Z,59.79
2018-02-27T23:28:26.802Z,60.16
2018-02-27T23:30:54.510Z,59.94
2018-02-27T23:33:25.123Z,60.06
2018-02-27T23:35:52.604Z,60.55
2018-02-27T23:38:20.062Z,60.67
2018-02-27T23:40:47.559Z,60.80
2018-02-27T23:43:15.022Z,60.71
2018-02-27T23:45:42.578Z,60.76
2018-02-27T23:48:10.098Z,61.40
2018-02-27T23:50:37.564Z,60.78
2018-02-27T23:53:05.031Z,60.73
2018-02-27T23:55:32.524Z,61.30
2018-02-27T23:58:00.004Z,61.50
